Five Points, New Mexico
Current Conditions -  °F | °C
As of 7:50 AM on Friday 19 Dec 2014 (Local Time) from KAEG Reporting Station
Scattered Clouds Scattered Clouds  
Wind Chill: 21°   Ceiling: Unl
Heat Index: 32°   Visibility: 10mi
Dew Point: 23°   Wind: 16mph
Humidity: 69%   Direction: 330°NNW
Pressure: 30.21"   Gusts: 21mph
Location:  35.1341°N, 106.888°W
Report Text: KAEG 191450Z 33014G18KT 10SM SCT030 00/M05 A3021
Loading
Personal Weather Stations






























Interactive Weather Map New forecast layout! Learn more

10-Day Weather Forecast

Advertisements
Track Severe Weather on mobile